Hardinsburg, Indiana
Current Conditions -  °F | °C
As of 3:00 PM on Sunday 23 Nov 2014 (Local Time) from KSDF Reporting Station
Light Rain Light Rain  
Wind Chill: 54°   Ceiling: 2300
Heat Index: 54°   Visibility: 3mi
Dew Point: 51°   Wind: 12mph
Humidity: 90%   Direction: 110°ESE
Pressure: 29.59"   Gusts: NA
Location:  38.46°N, 86.28°W
Report Text: KSDF 232000Z 11010KT 3SM R35R/5500VP6000FT -RA BR SCT014 BKN023 OVC050 12/11 A2959 RMK AO2 PRESFR P0001 T01220106 $
Loading
Personal Weather Stations






























Interactive Weather Map New forecast layout! Learn more

10-Day Weather Forecast

Advertisements
Track Severe Weather on mobile